»·PEaware :: SLEEP12 KEND-KEND

SLEEP12 :: KEND-KEND

FLIGHT INFORMATION

Flight Status: Arrived
Operator: Unknown
More flights by this operator :: More flights under this callsign
Pilot: Justen L. (21615)
Aircraft: BEECH AIRCRAFT T-6A TEXAN
(TEX2)
More flights by this aircraft type
Origin: KEND Vance AFB
United States
Destination: KEND Vance AFB
United States
More flights between these airports :: More routes between these airports
Route: +DF
File this flight plan on PilotEdge
Remarks:
Altitude:
(Current/Filed)
0ft
Speed:
(Current/Filed)
0kts
Departed: 29-Jul-19 08:23 AM
Arrived: 29-Jul-19 09:03 AM
Distance/Time
Traveled:
1nm/0:40
Distance/Time
To Go:
Arrived

Flight Plot

Page will automatically refresh every two minutes.

Flight plan parsing failed; only flown route is shown


Map Options




Map Legend


Flown Route
Filed Route
Departure Airport
Arrival Airport
Navaid (VOR, NDB)
Fix

Horizontal Profiles

Position Reports

Time Latitude Longitude Heading Altitude Ground
Speed
29-Jul-19 08:08 36.346970 -97.909980 220 1279ft 0kts
29-Jul-19 08:09 36.346970 -97.909980 220 1279ft 0kts
29-Jul-19 08:09 36.346970 -97.909980 220 1279ft 0kts
29-Jul-19 08:10 36.346970 -97.909980 220 1279ft 0kts
29-Jul-19 08:11 36.346970 -97.909980 220 1279ft 0kts
29-Jul-19 08:12 36.346970 -97.909980 220 1279ft 0kts
29-Jul-19 08:16 36.346971 -97.909990 217 1279ft 0kts
29-Jul-19 08:17 36.346971 -97.909990 217 1279ft 0kts
29-Jul-19 08:18 36.346922 -97.909503 65 1280ft 6kts
29-Jul-19 08:19 36.350121 -97.909203 354 1274ft 15kts
29-Jul-19 08:20 36.354083 -97.911170 358 1275ft 16kts
29-Jul-19 08:21 36.355375 -97.913396 266 1274ft 9kts
29-Jul-19 08:22 36.339718 -97.914852 181 1510ft 143kts
29-Jul-19 08:23 36.294398 -97.904734 170 3179ft 163kts
29-Jul-19 08:24 36.247737 -97.891103 169 4964ft 206kts
29-Jul-19 08:25 36.255499 -97.835592 356 4890ft 242kts
29-Jul-19 08:26 36.315396 -97.867651 329 4994ft 231kts
29-Jul-19 08:27 36.373236 -97.903970 342 4893ft 244kts
29-Jul-19 08:28 36.441352 -97.907167 359 4870ft 239kts
29-Jul-19 08:29 36.507900 -97.903611 359 4951ft 241kts
29-Jul-19 08:30 36.574865 -97.901817 351 5107ft 236kts
29-Jul-19 08:31 36.642851 -97.894480 2 4963ft 246kts
29-Jul-19 08:32 36.710018 -97.890044 354 3267ft 234kts
29-Jul-19 08:33 36.738913 -97.949308 268 2319ft 223kts
29-Jul-19 08:34 36.744332 -98.024877 299 2235ft 211kts
29-Jul-19 08:35 36.783296 -98.072666 357 2303ft 209kts
29-Jul-19 08:36 36.790229 -98.121292 185 2218ft 189kts
29-Jul-19 08:37 36.739293 -98.121811 151 2317ft 178kts
29-Jul-19 08:38 36.762614 -98.108215 307 1935ft 124kts
29-Jul-19 08:39 36.744179 -98.123378 182 1202ft 79kts
29-Jul-19 08:40 36.711058 -98.110556 97 1669ft 200kts
29-Jul-19 08:41 36.742390 -98.073607 359 2335ft 203kts
29-Jul-19 08:42 36.797723 -98.072628 356 1791ft 183kts
29-Jul-19 08:43 36.803505 -98.119556 210 1740ft 150kts
29-Jul-19 08:44 36.770751 -98.121878 185 1705ft 96kts
29-Jul-19 08:45 36.744590 -98.123276 185 1202ft 80kts
29-Jul-19 08:46 36.710036 -98.117033 88 1551ft 216kts
29-Jul-19 08:47 36.714594 -98.044855 76 4468ft 175kts
29-Jul-19 08:48 36.717249 -97.978033 90 6065ft 235kts
29-Jul-19 08:49 36.699959 -97.894623 117 6123ft 256kts
29-Jul-19 08:50 36.666572 -97.816488 145 5859ft 253kts
29-Jul-19 08:51 36.597941 -97.802776 181 3006ft 239kts
29-Jul-19 08:52 36.541155 -97.827086 196 2295ft 216kts
29-Jul-19 08:53 36.492336 -97.868243 226 2297ft 203kts
29-Jul-19 08:54 36.449124 -97.905223 197 2323ft 185kts
29-Jul-19 08:55 36.397817 -97.914383 181 2366ft 187kts
29-Jul-19 08:56 36.349475 -97.912320 179 4184ft 159kts
29-Jul-19 08:57 36.360665 -97.891859 309 2630ft 131kts
29-Jul-19 08:58 36.349299 -97.914685 180 1334ft 92kts
29-Jul-19 08:59 36.348246 -97.897849 359 2360ft 151kts
29-Jul-19 09:00 36.366042 -97.912164 207 1555ft 103kts
29-Jul-19 09:01 36.345475 -97.914654 179 1280ft 48kts
29-Jul-19 09:02 36.332500 -97.914650 177 1292ft 22kts
29-Jul-19 09:03 36.330503 -97.913773 97 1294ft 0kts
29-Jul-19 09:04 36.330475 -97.913563 100 1294ft 0kts

Navigation Log

Ident Type
Flight plan parsing failed, navigation log unavailable